メインページ
METAR-TAF:

METAR-TAF

空港 :

ポートオブスペイン, Trinidad, トリニダード・トバゴ

緯度: 10-37N, 経度: 061-21W, 海抜: 12m

現時点の気象観測

当レポートは27分前の21:00(UTC)に作成
東/南東の風 7kt
気温 27°C
湿度 89%
気圧 1010 hPa
視程: 3000m
高度1500ftの千切れ雲あり
高度3600ftの雲は散在している
にわか雨

METAR: TTPP 202100Z 11007KT 3000 SHRA BKN015 SCT036 27/25 Q1010 NOSIG RMK VCSH ALQDS

時間: 17:27 (21:27 UTC)

予報

当レポートは5時間27分前の16:00(UTC)に作成
予報は20日の 18時(UTC)から 21日の 18時(UTC)まで有効
東/南東の風 12kt
視程10km以上
高度1600ftの雲は散在している
高度3800ftの雲は散在している
21日の 04時(UTC)から 21日の 11時(UTC)まで一時的に
視程: 4000m
高度1200ftの雲はほとんどない, 積乱雲.
高度1500ftの雲は散在している
にわか雨

TAF: TTPP 201600Z 2018/2118 11012KT 9999 SCT016 SCT038 TEMPO 2104/2111 4000 SHRA FEW012CB SCT015

4,000以上の空港の気象観測と天気予報(METAR報とTAF報)

利用可能な観測所は地図上に黄色い丸と赤い丸で示す。

丸の上にカーソルを重ねると観測所名を参照できる。

次にクリックすると気象観測と天気予報を参照できる。

マップの切り替え:黒色「×」印の緑ボタンをクリックして拡大、「-」印の緑ボタンをクリックして縮小、緑色の三角印をクリックして隣りの地図に切り替え


METAR-TAF: